Time;durP1;ratioP1;P1;durP2;ratioP2;P2;SDS_P1;SDS_P2;PMS_P1;PMS_P2;Temp;Humidity;BMP_temperature;BMP_pressure;BME280_temperature;BME280_humidity;BME280_pressure;Samples;Min_cycle;Max_cycle;Signal;HPM_P1;HPM_P2
2023/07/01 00:02:17;;;;;;;;;;;;;;;15.36;92.62;94915.63;5114256;28;1019;-51
2023/07/01 00:04:43;;;;;;;;;;;;;;;15.06;93.87;94917.66;5114200;28;1048;-51
2023/07/01 00:07:09;;;;;;;;;;;;;;;14.99;94.11;94915.75;5114307;28;1011;-51
2023/07/01 00:09:35;;;;;;;;;;;;;;;15.16;93.64;94919.00;5114214;28;964;-51
2023/07/01 00:12:02;;;;;;;;;;;;;;;14.98;94.49;94924.84;5114086;28;1044;-51
2023/07/01 00:14:28;;;;;;;;;;;;;;;14.91;94.44;94917.75;5113861;28;1905;-51
2023/07/01 00:16:54;;;;;;;;;;;;;;;15.01;94.89;94921.78;5114224;28;1039;-51
2023/07/01 00:19:20;;;;;;;;;;;;;;;15.17;93.81;94922.53;5114277;28;972;-51
2023/07/01 00:21:46;;;;;;;;;;;;;;;15.26;93.68;94912.47;5113941;28;2074;-51
2023/07/01 00:24:13;;;;;;;;;;;;;;;15.13;93.02;94918.56;5113924;28;1046;-51
2023/07/01 00:26:39;;;;;;;;;;;;;;;14.78;94.19;94922.00;5113958;28;1040;-51
2023/07/01 00:29:05;;;;;;;;;;;;;;;14.64;95.70;94928.25;5113678;28;987;-51
2023/07/01 00:31:31;;;;;;;;;;;;;;;14.56;95.89;94917.59;5113905;28;989;-51
2023/07/01 00:33:57;;;;;;;;;;;;;;;14.56;96.35;94912.22;5113684;28;2000;-51
2023/07/01 00:36:23;;;;;;;;;;;;;;;14.71;96.09;94912.19;5113959;27;920;-50
2023/07/01 00:38:49;;;;;;;;;;;;;;;14.90;94.20;94916.09;5113891;28;955;-51
2023/07/01 00:41:17;;;;;;;;;;;;;;;14.76;93.93;94915.13;5113945;28;988;-51
2023/07/01 00:43:43;;;;;;;;;;;;;;;14.80;94.21;94917.25;5113342;28;1781;-51
2023/07/01 00:46:09;;;;;;;;;;;;;;;14.93;94.30;94915.69;5113637;28;1854;-51
2023/07/01 00:48:38;;;;;;;;;;;;;;;14.95;93.84;94911.78;5113861;28;1212;-51
2023/07/01 00:51:04;;;;;;;;;;;;;;;14.81;94.46;94918.06;5113663;28;1119;-51
2023/07/01 00:53:30;;;;;;;;;;;;;;;14.75;94.09;94905.41;5113535;28;1143;-51
2023/07/01 00:55:56;;;;;;;;;;;;;;;14.91;93.74;94913.22;5113814;28;1914;-51
2023/07/01 00:58:22;;;;;;;;;;;;;;;14.84;94.27;94915.84;5113781;28;1074;-51
2023/07/01 01:00:48;;;;;;;;;;;;;;;14.76;94.56;94920.50;5113724;28;1004;-51
2023/07/01 01:03:21;;;;;;;;;;;;;;;14.83;94.33;94924.94;5113407;28;1049;-51
2023/07/01 01:05:50;;;;;;;;;;;;;;;14.62;94.41;94922.25;5113529;28;1875;-51
2023/07/01 01:08:36;;;;;;;;;;;;;;;14.47;95.35;94916.06;5113487;28;961;-51
2023/07/01 01:11:02;;;;;;;;;;;;;;;14.30;95.84;94913.59;5108696;28;2891;-51
2023/07/01 01:13:29;;;;;;;;;;;;;;;14.47;95.43;94914.19;5113601;28;1020;-51
2023/07/01 01:15:57;;;;;;;;;;;;;;;14.63;94.63;94907.78;5113509;28;1879;-51
2023/07/01 01:18:28;;;;;;;;;;;;;;;14.62;94.46;94901.53;5112441;28;1028;-51
2023/07/01 01:20:55;;;;;;;;;;;;;;;14.27;95.88;94907.78;5113692;28;1013;-51
2023/07/01 01:23:36;;;;;;;;;;;;;;;14.15;96.93;94902.91;5113161;28;912;-51
2023/07/01 01:26:26;;;;;;;;;;;;;;;14.14;96.42;94901.22;5112289;28;972;-51
2023/07/01 01:28:52;;;;;;;;;;;;;;;14.22;96.00;94893.03;5113638;28;1024;-51
2023/07/01 01:31:19;;;;;;;;;;;;;;;14.26;95.87;94904.25;5113173;28;933;-51
2023/07/01 01:33:46;;;;;;;;;;;;;;;14.22;95.83;94895.72;5113328;28;2004;-51
2023/07/01 01:36:12;;;;;;;;;;;;;;;14.22;95.44;94887.66;5112139;28;1031;-51
2023/07/01 01:38:40;;;;;;;;;;;;;;;14.28;95.65;94887.91;5113437;28;960;-51
2023/07/01 01:41:09;;;;;;;;;;;;;;;14.40;95.68;94887.25;5113502;28;948;-51
2023/07/01 01:44:04;;;;;;;;;;;;;;;14.45;95.16;94889.34;5116787;28;1535;-51
2023/07/01 01:46:31;;;;;;;;;;;;;;;14.32;94.37;94895.41;5107648;28;1312;-51
2023/07/01 01:49:01;;;;;;;;;;;;;;;14.15;95.22;94880.53;5117129;28;1052;-51
2023/07/01 01:51:28;;;;;;;;;;;;;;;14.00;96.31;94891.31;5117140;28;964;-51
2023/07/01 01:53:55;;;;;;;;;;;;;;;13.92;96.91;94886.06;5116869;28;1918;-51
2023/07/01 01:56:22;;;;;;;;;;;;;;;13.97;96.46;94889.84;5116619;28;968;-51
2023/07/01 01:58:48;;;;;;;;;;;;;;;13.92;96.48;94891.44;5116832;28;964;-50
2023/07/01 02:01:14;;;;;;;;;;;;;;;13.90;96.58;94894.31;5116839;28;1058;-51
2023/07/01 02:03:43;;;;;;;;;;;;;;;13.96;96.21;94888.19;5116838;28;1055;-51
2023/07/01 02:06:09;;;;;;;;;;;;;;;13.93;96.30;94893.13;5116782;28;1043;-51
2023/07/01 02:08:35;;;;;;;;;;;;;;;13.97;96.28;94894.41;5116432;28;984;-51
2023/07/01 02:11:01;;;;;;;;;;;;;;;14.16;95.70;94893.78;5116372;28;1040;-51
2023/07/01 02:13:27;;;;;;;;;;;;;;;14.24;94.85;94890.97;5116548;28;1039;-51
2023/07/01 02:15:53;;;;;;;;;;;;;;;13.97;96.15;94892.53;5116513;28;2011;-51
2023/07/01 02:18:19;;;;;;;;;;;;;;;13.93;96.73;94887.75;5116208;28;1194;-51
2023/07/01 02:20:45;;;;;;;;;;;;;;;14.00;96.30;94888.63;5116469;28;1038;-51
2023/07/01 02:23:11;;;;;;;;;;;;;;;13.91;96.07;94897.84;5116108;28;965;-51
2023/07/01 02:25:37;;;;;;;;;;;;;;;13.77;96.52;94889.63;5109432;28;3258;-51
2023/07/01 02:28:03;;;;;;;;;;;;;;;13.73;96.96;94888.31;5095565;28;1111;-51
2023/07/01 02:30:31;;;;;;;;;;;;;;;13.75;96.66;94893.50;5095811;28;1027;-51
2023/07/01 02:32:57;;;;;;;;;;;;;;;13.97;96.29;94892.53;5095834;28;1032;-51
2023/07/01 02:35:23;;;;;;;;;;;;;;;14.05;95.20;94896.97;5095685;28;1906;-51
2023/07/01 02:37:49;;;;;;;;;;;;;;;13.85;96.21;94891.38;5095763;28;1099;-51
2023/07/01 02:40:15;;;;;;;;;;;;;;;13.66;97.33;94890.91;5095379;28;1020;-51
2023/07/01 02:42:41;;;;;;;;;;;;;;;13.80;97.36;94897.28;5104352;28;1426;-51
2023/07/01 02:45:07;;;;;;;;;;;;;;;13.94;96.71;94894.78;5115562;28;1107;-51
2023/07/01 02:47:34;;;;;;;;;;;;;;;13.90;96.57;94898.84;5115570;28;1032;-51
2023/07/01 02:50:00;;;;;;;;;;;;;;;13.90;96.19;94905.06;5115590;28;1998;-51
2023/07/01 02:52:26;;;;;;;;;;;;;;;13.81;96.36;94909.72;5115636;28;989;-51
2023/07/01 02:54:52;;;;;;;;;;;;;;;13.75;96.49;94906.94;5115357;28;1992;-51
2023/07/01 02:57:19;;;;;;;;;;;;;;;13.88;96.93;94907.09;5115403;27;1048;-51
2023/07/01 02:59:46;;;;;;;;;;;;;;;13.91;96.50;94900.53;5115414;28;1124;-51
2023/07/01 03:02:12;;;;;;;;;;;;;;;13.97;96.42;94899.78;5115493;28;984;-51
2023/07/01 03:04:38;;;;;;;;;;;;;;;13.94;96.39;94897.44;5115347;28;1880;-51
2023/07/01 03:07:04;;;;;;;;;;;;;;;13.93;96.55;94898.50;5115280;28;1052;-51
2023/07/01 03:09:30;;;;;;;;;;;;;;;13.69;97.25;94900.44;5115056;28;1516;-51
2023/07/01 03:11:56;;;;;;;;;;;;;;;13.54;98.39;94900.44;5115115;28;1092;-51
2023/07/01 03:14:23;;;;;;;;;;;;;;;13.47;98.45;94903.06;5113699;28;1996;-51
2023/07/01 03:16:49;;;;;;;;;;;;;;;13.47;98.65;94904.91;5115007;28;1080;-51
2023/07/01 03:19:15;;;;;;;;;;;;;;;13.46;98.75;94908.59;5115279;28;1304;-51
2023/07/01 03:21:41;;;;;;;;;;;;;;;13.46;99.07;94901.38;5114998;28;1044;-51
2023/07/01 03:24:07;;;;;;;;;;;;;;;13.51;99.19;94897.28;5115172;28;1050;-51
2023/07/01 03:26:33;;;;;;;;;;;;;;;13.63;98.65;94895.81;5114858;28;993;-51
2023/07/01 03:28:59;;;;;;;;;;;;;;;13.85;98.29;94897.56;5114869;28;1084;-51
2023/07/01 03:31:25;;;;;;;;;;;;;;;14.03;98.28;94899.03;5115046;28;1038;-51
2023/07/01 03:33:51;;;;;;;;;;;;;;;14.20;98.12;94899.63;5114848;28;2063;-51
2023/07/01 03:36:17;;;;;;;;;;;;;;;13.95;98.58;94891.06;5114704;28;1063;-50
2023/07/01 03:38:43;;;;;;;;;;;;;;;13.96;97.61;94898.09;5114604;28;1167;-51
2023/07/01 03:41:09;;;;;;;;;;;;;;;14.10;97.31;94905.31;5114696;28;1020;-51
2023/07/01 03:43:35;;;;;;;;;;;;;;;14.24;97.58;94906.28;5114391;28;1582;-51
2023/07/01 03:46:02;;;;;;;;;;;;;;;14.34;96.50;94906.84;5113236;28;1111;-50
2023/07/01 03:48:28;;;;;;;;;;;;;;;14.56;96.75;94910.34;5114345;28;1056;-51
2023/07/01 03:50:55;;;;;;;;;;;;;;;14.69;96.75;94898.94;5114488;28;1058;-51
2023/07/01 03:53:20;;;;;;;;;;;;;;;14.64;97.61;94898.66;5114295;28;1026;-51
2023/07/01 03:55:47;;;;;;;;;;;;;;;14.78;97.36;94905.84;5114248;28;1985;-51
2023/07/01 03:58:21;;;;;;;;;;;;;;;14.98;96.52;94899.78;5114452;28;1007;-51
2023/07/01 04:00:48;;;;;;;;;;;;;;;14.94;97.07;94904.72;5114674;28;976;-51
2023/07/01 04:03:14;;;;;;;;;;;;;;;14.98;98.46;94908.69;5114167;28;1083;-51
2023/07/01 04:05:40;;;;;;;;;;;;;;;15.18;96.69;94911.56;5113775;28;1073;-51
2023/07/01 04:08:06;;;;;;;;;;;;;;;15.25;96.71;94903.53;5114134;28;1066;-51
2023/07/01 04:10:32;;;;;;;;;;;;;;;15.29;96.87;94902.13;5114291;28;976;-51
2023/07/01 04:13:00;;;;;;;;;;;;;;;15.60;94.75;94903.56;5114341;28;1020;-51
2023/07/01 04:15:27;;;;;;;;;;;;;;;15.89;94.04;94905.19;5113909;28;1902;-51
2023/07/01 04:17:54;;;;;;;;;;;;;;;16.09;91.02;94899.91;5114292;28;1008;-51
2023/07/01 04:20:20;;;;;;;;;;;;;;;16.26;90.41;94900.38;5113906;28;1019;-51
2023/07/01 04:22:46;;;;;;;;;;;;;;;16.32;88.01;94898.72;5112760;28;1011;-51
2023/07/01 04:25:12;;;;;;;;;;;;;;;16.38;89.15;94901.44;5114055;28;1009;-51
2023/07/01 04:27:42;;;;;;;;;;;;;;;16.50;88.55;94907.06;5113889;28;1032;-51
2023/07/01 04:30:08;;;;;;;;;;;;;;;16.69;86.01;94900.06;5114150;28;991;-51
2023/07/01 04:32:34;;;;;;;;;;;;;;;16.84;87.27;94901.78;5113780;28;1020;-51
2023/07/01 04:35:01;;;;;;;;;;;;;;;16.83;85.63;94911.75;5112826;28;2489;-51
2023/07/01 04:37:27;;;;;;;;;;;;;;;16.83;88.40;94911.75;5112851;28;2886;-51
2023/07/01 04:39:53;;;;;;;;;;;;;;;16.90;86.62;94912.59;5113981;28;1023;-51
2023/07/01 04:42:19;;;;;;;;;;;;;;;17.05;85.24;94906.97;5113812;28;1406;-51
2023/07/01 04:44:53;;;;;;;;;;;;;;;17.15;87.90;94910.13;5113709;28;1102;-51
2023/07/01 04:47:23;;;;;;;;;;;;;;;17.13;84.60;94914.03;5113637;28;1118;-51
2023/07/01 04:49:52;;;;;;;;;;;;;;;17.39;84.84;94912.38;5113749;28;1984;-51
2023/07/01 04:52:22;;;;;;;;;;;;;;;17.55;86.40;94914.66;5113499;28;1051;-51
2023/07/01 04:54:48;;;;;;;;;;;;;;;17.76;85.63;94913.59;5113511;28;1906;-51
2023/07/01 04:57:15;;;;;;;;;;;;;;;18.02;83.30;94917.28;5093300;28;3096;-51
2023/07/01 04:59:41;;;;;;;;;;;;;;;18.15;82.69;94917.22;5092247;28;1471;-51
2023/07/01 05:02:07;;;;;;;;;;;;;;;18.02;83.41;94917.28;5092965;28;953;-51
2023/07/01 05:04:33;;;;;;;;;;;;;;;18.32;83.93;94921.09;5091814;28;1020;-51
2023/07/01 05:06:59;;;;;;;;;;;;;;;18.25;83.91;94920.31;5092977;28;1023;-51
2023/07/01 05:09:25;;;;;;;;;;;;;;;18.26;84.82;94911.16;5093207;28;1016;-51
2023/07/01 05:11:51;;;;;;;;;;;;;;;18.27;84.72;94920.13;5093429;28;968;-52
2023/07/01 05:14:17;;;;;;;;;;;;;;;18.12;81.85;94912.25;5092936;28;1986;-53
2023/07/01 05:16:43;;;;;;;;;;;;;;;18.16;83.95;94920.78;5094394;28;1074;-53
2023/07/01 05:19:09;;;;;;;;;;;;;;;18.32;83.71;94915.69;5097067;28;959;-52
2023/07/01 05:21:35;;;;;;;;;;;;;;;18.28;82.29;94913.66;5096925;28;933;-53
2023/07/01 05:24:04;;;;;;;;;;;;;;;18.28;83.23;94914.47;5097219;28;1046;-52
2023/07/01 05:26:30;;;;;;;;;;;;;;;18.34;85.15;94918.19;5097026;28;1039;-52
2023/07/01 05:28:57;;;;;;;;;;;;;;;18.63;82.38;94922.22;5096799;28;2314;-53
2023/07/01 05:31:23;;;;;;;;;;;;;;;19.01;79.82;94925.97;5096572;28;2968;-52
2023/07/01 05:33:49;;;;;;;;;;;;;;;19.06;81.47;94915.31;5096704;28;1996;-53
2023/07/01 05:36:15;;;;;;;;;;;;;;;19.25;81.12;94917.03;5096723;28;976;-52
2023/07/01 05:38:41;;;;;;;;;;;;;;;19.29;80.84;94915.56;5096895;28;968;-53
2023/07/01 05:41:07;;;;;;;;;;;;;;;19.55;81.18;94916.38;5096495;28;1104;-53
2023/07/01 05:43:33;;;;;;;;;;;;;;;19.60;80.99;94915.72;5112703;28;1644;-53
2023/07/01 05:46:00;;;;;;;;;;;;;;;19.63;79.38;94918.78;5110745;28;3045;-53
2023/07/01 05:48:26;;;;;;;;;;;;;;;19.75;78.45;94918.94;5095177;28;1139;-52
2023/07/01 05:50:52;;;;;;;;;;;;;;;19.89;79.27;94912.28;5095052;28;1078;-52
2023/07/01 05:53:18;;;;;;;;;;;;;;;20.01;79.49;94914.25;5103287;28;2918;-52
2023/07/01 05:55:44;;;;;;;;;;;;;;;20.16;78.03;94917.44;5094813;28;1914;-52
2023/07/01 05:58:10;;;;;;;;;;;;;;;20.41;77.44;94913.78;5095809;28;1264;-53
2023/07/01 06:00:36;;;;;;;;;;;;;;;20.50;78.57;94914.31;5094943;28;1012;-52
2023/07/01 06:03:02;;;;;;;;;;;;;;;20.54;76.73;94910.09;5096067;28;1041;-53
2023/07/01 06:05:28;;;;;;;;;;;;;;;20.72;76.45;94912.81;5094829;28;1032;-53
2023/07/01 06:07:54;;;;;;;;;;;;;;;20.80;74.70;94912.47;5095853;28;1049;-53
2023/07/01 06:10:20;;;;;;;;;;;;;;;20.98;75.89;94913.47;5095765;28;1073;-53
2023/07/01 06:12:46;;;;;;;;;;;;;;;21.14;75.03;94909.28;5095506;28;1693;-53
2023/07/01 06:15:12;;;;;;;;;;;;;;;21.06;75.25;94908.53;5095852;28;1938;-52
2023/07/01 06:17:38;;;;;;;;;;;;;;;21.19;74.37;94904.78;5095958;28;1035;-53
2023/07/01 06:20:05;;;;;;;;;;;;;;;21.12;76.38;94905.97;5095804;28;1866;-53
2023/07/01 06:22:31;;;;;;;;;;;;;;;21.38;76.80;94910.13;5095666;28;1028;-52
2023/07/01 06:24:57;;;;;;;;;;;;;;;21.60;74.86;94892.19;5095873;28;973;-53
2023/07/01 06:27:23;;;;;;;;;;;;;;;21.72;73.46;94903.09;5094281;28;968;-53
2023/07/01 06:29:49;;;;;;;;;;;;;;;21.88;73.80;94901.56;5095880;28;1043;-53
2023/07/01 06:32:15;;;;;;;;;;;;;;;21.94;72.92;94899.78;5095470;28;1045;-53
2023/07/01 06:34:41;;;;;;;;;;;;;;;21.90;74.86;94901.31;5095427;28;2308;-53
2023/07/01 06:37:07;;;;;;;;;;;;;;;21.97;72.40;94896.59;5095596;28;1039;-53
2023/07/01 06:39:33;;;;;;;;;;;;;;;22.19;72.45;94896.78;5095339;28;1108;-54
2023/07/01 06:41:59;;;;;;;;;;;;;;;22.38;68.97;94903.72;5098540;28;1434;-53
2023/07/01 06:44:25;;;;;;;;;;;;;;;22.45;71.84;94897.34;5115636;28;1087;-53
2023/07/01 06:46:51;;;;;;;;;;;;;;;22.52;71.44;94892.56;5115781;28;1070;-53
2023/07/01 06:49:17;;;;;;;;;;;;;;;22.45;70.61;94894.63;5115756;28;977;-53
2023/07/01 06:51:43;;;;;;;;;;;;;;;22.51;69.75;94888.19;5115533;28;1046;-53
2023/07/01 06:54:10;;;;;;;;;;;;;;;22.66;65.79;94891.22;5115367;28;1910;-53
2023/07/01 06:56:37;;;;;;;;;;;;;;;22.84;67.51;94890.22;5115792;28;1043;-53
2023/07/01 06:59:03;;;;;;;;;;;;;;;22.81;66.91;94888.78;5115273;28;1036;-53
2023/07/01 07:01:29;;;;;;;;;;;;;;;22.90;65.06;94888.41;5115596;28;1059;-53
2023/07/01 07:03:56;;;;;;;;;;;;;;;23.27;67.14;94880.59;5115387;28;1048;-53
2023/07/01 07:06:22;;;;;;;;;;;;;;;23.45;65.17;94879.56;5115147;28;1113;-53
2023/07/01 07:08:48;;;;;;;;;;;;;;;23.19;63.39;94878.31;5115188;28;1048;-53
2023/07/01 07:11:14;;;;;;;;;;;;;;;23.24;65.80;94883.00;5115064;28;1124;-53
2023/07/01 07:13:40;;;;;;;;;;;;;;;23.40;64.64;94890.38;5115443;28;1058;-53
2023/07/01 07:16:06;;;;;;;;;;;;;;;23.64;65.75;94882.84;5115194;28;1905;-53
2023/07/01 07:18:32;;;;;;;;;;;;;;;23.85;64.47;94877.72;5108199;28;2568;-53
2023/07/01 07:20:58;;;;;;;;;;;;;;;23.95;65.21;94884.16;5110843;28;2953;-53
2023/07/01 07:23:24;;;;;;;;;;;;;;;24.10;63.31;94880.81;5115070;28;1011;-53
2023/07/01 07:25:50;;;;;;;;;;;;;;;24.23;63.54;94885.09;5115104;28;1046;-53
2023/07/01 07:28:16;;;;;;;;;;;;;;;24.20;63.28;94884.75;5114965;28;1019;-53
2023/07/01 07:30:42;;;;;;;;;;;;;;;24.06;63.95;94879.66;5114769;28;1049;-53
2023/07/01 07:33:08;;;;;;;;;;;;;;;24.22;66.75;94868.94;5114708;28;1027;-53
2023/07/01 07:35:34;;;;;;;;;;;;;;;24.35;63.01;94868.56;5114510;28;1990;-53
2023/07/01 07:38:00;;;;;;;;;;;;;;;24.48;62.10;94868.16;5114712;28;1040;-53
2023/07/01 07:40:26;;;;;;;;;;;;;;;24.55;63.23;94870.75;5114033;28;1060;-53
2023/07/01 07:42:53;;;;;;;;;;;;;;;24.52;64.94;94882.19;5114641;28;1513;-53
2023/07/01 07:45:20;;;;;;;;;;;;;;;24.53;61.18;94883.84;5114489;28;1213;-53
2023/07/01 07:47:46;;;;;;;;;;;;;;;24.84;63.07;94871.34;5114542;28;993;-53
2023/07/01 07:50:13;;;;;;;;;;;;;;;24.86;64.60;94868.34;5114390;28;1043;-53
2023/07/01 07:52:39;;;;;;;;;;;;;;;24.88;60.52;94868.91;5110201;28;2538;-53
2023/07/01 07:55:05;;;;;;;;;;;;;;;24.78;62.07;94855.16;5093948;28;1995;-53
2023/07/01 07:57:31;;;;;;;;;;;;;;;24.92;62.10;94851.72;5094038;28;1005;-53
2023/07/01 07:59:58;;;;;;;;;;;;;;;25.19;62.69;94847.31;5094008;28;1040;-53
2023/07/01 08:02:24;;;;;;;;;;;;;;;25.29;64.27;94844.72;5093849;28;1028;-53
2023/07/01 08:04:51;;;;;;;;;;;;;;;25.11;60.72;94851.34;5092638;28;1048;-54
2023/07/01 08:07:17;;;;;;;;;;;;;;;25.29;60.97;94847.47;5092772;28;1239;-54
2023/07/01 08:09:43;;;;;;;;;;;;;;;25.26;60.52;94850.69;5093954;28;1016;-54
2023/07/01 08:12:09;;;;;;;;;;;;;;;25.37;60.56;94844.22;5093852;28;976;-54
2023/07/01 08:14:35;;;;;;;;;;;;;;;25.40;61.98;94842.88;5093753;28;1989;-54
2023/07/01 08:17:01;;;;;;;;;;;;;;;25.68;61.71;94841.72;5093679;28;953;-54
2023/07/01 08:19:27;;;;;;;;;;;;;;;25.74;59.76;94842.56;5093813;28;1051;-54
2023/07/01 08:21:54;;;;;;;;;;;;;;;25.71;61.40;94843.94;5093836;28;1297;-53
2023/07/01 08:24:21;;;;;;;;;;;;;;;25.78;60.32;94838.22;5093439;28;1027;-53
2023/07/01 08:26:47;;;;;;;;;;;;;;;25.85;59.97;94831.41;5093720;28;1043;-54
2023/07/01 08:29:13;;;;;;;;;;;;;;;25.90;62.34;94827.88;5093451;28;1050;-53
2023/07/01 08:31:40;;;;;;;;;;;;;;;25.88;60.38;94816.38;5093791;28;1011;-54
2023/07/01 08:34:07;;;;;;;;;;;;;;;25.80;59.95;94823.19;5093440;28;1989;-53
2023/07/01 08:36:33;;;;;;;;;;;;;;;25.85;62.36;94814.97;5093169;28;1049;-53
2023/07/01 08:38:59;;;;;;;;;;;;;;;25.93;60.44;94813.69;5093652;28;968;-54
2023/07/01 08:41:25;;;;;;;;;;;;;;;26.12;61.02;94814.03;5093633;28;1044;-54
2023/07/01 08:43:52;;;;;;;;;;;;;;;26.21;61.75;94809.72;5112162;28;1215;-54
2023/07/01 08:46:19;;;;;;;;;;;;;;;26.31;60.79;94806.19;5113803;28;1043;-53
2023/07/01 08:48:46;;;;;;;;;;;;;;;26.41;62.47;94803.50;5112699;28;1035;-54
2023/07/01 08:51:12;;;;;;;;;;;;;;;26.38;56.85;94803.19;5115694;28;1047;-54
2023/07/01 08:53:41;;;;;;;;;;;;;;;26.46;60.97;94794.44;5118096;28;959;-54
2023/07/01 08:56:07;;;;;;;;;;;;;;;26.55;56.34;94795.56;5117973;28;1925;-54
2023/07/01 08:58:34;;;;;;;;;;;;;;;26.79;57.46;94787.72;5117258;28;1068;-54
2023/07/01 09:01:00;;;;;;;;;;;;;;;26.97;57.34;94791.84;5117239;27;1036;-54
2023/07/01 09:03:26;;;;;;;;;;;;;;;27.03;58.08;94790.75;5116347;28;1108;-54
2023/07/01 09:05:52;;;;;;;;;;;;;;;26.93;53.74;94788.00;5115726;28;1037;-54
2023/07/01 09:08:18;;;;;;;;;;;;;;;26.93;58.94;94787.19;5115887;28;1023;-54
2023/07/01 09:10:44;;;;;;;;;;;;;;;27.02;57.68;94791.03;5115652;28;1145;-54
2023/07/01 09:13:13;;;;;;;;;;;;;;;26.89;53.15;94786.91;5116734;28;1104;-54
2023/07/01 09:15:49;;;;;;;;;;;;;;;26.83;55.63;94777.03;5117385;28;1906;-54
2023/07/01 09:18:19;;;;;;;;;;;;;;;26.92;56.34;94774.53;5116302;28;1023;-54
2023/07/01 09:20:45;;;;;;;;;;;;;;;27.17;56.09;94766.34;5117182;28;1056;-54
2023/07/01 09:23:11;;;;;;;;;;;;;;;27.21;56.92;94767.44;5117240;28;1024;-54
2023/07/01 09:25:37;;;;;;;;;;;;;;;27.41;56.96;94755.66;5117143;28;1103;-54
2023/07/01 09:28:03;;;;;;;;;;;;;;;27.62;60.15;94750.94;5116209;28;2306;-54
2023/07/01 09:30:29;;;;;;;;;;;;;;;27.48;58.20;94749.03;5096339;28;2866;-54
2023/07/01 09:33:10;;;;;;;;;;;;;;;27.39;58.27;94741.34;5096908;28;1039;-54
2023/07/01 09:35:42;;;;;;;;;;;;;;;27.56;59.33;94746.53;5096837;28;1913;-54
2023/07/01 09:38:08;;;;;;;;;;;;;;;27.65;59.39;94744.88;5096552;28;984;-54
2023/07/01 09:40:34;;;;;;;;;;;;;;;27.71;57.91;94737.44;5096997;28;1067;-54
2023/07/01 09:43:00;;;;;;;;;;;;;;;27.60;61.58;94739.41;5107881;28;1404;-54
2023/07/01 09:45:26;;;;;;;;;;;;;;;27.23;58.78;94737.78;5116696;28;1333;-54
2023/07/01 09:47:53;;;;;;;;;;;;;;;27.27;56.18;94727.13;5117046;28;1034;-54
2023/07/01 09:50:23;;;;;;;;;;;;;;;27.62;58.98;94723.47;5116627;28;1096;-54
2023/07/01 09:52:50;;;;;;;;;;;;;;;27.71;60.38;94709.97;5116885;28;1015;-54
2023/07/01 09:55:17;;;;;;;;;;;;;;;27.79;58.77;94712.16;5116755;28;1902;-54
2023/07/01 09:57:43;;;;;;;;;;;;;;;27.77;59.94;94700.63;5116416;28;1056;-55
2023/07/01 10:00:15;;;;;;;;;;;;;;;27.94;58.29;94705.00;5116492;28;1057;-54
2023/07/01 10:02:44;;;;;;;;;;;;;;;28.07;58.09;94706.31;5116060;28;1002;-54
2023/07/01 10:05:12;;;;;;;;;;;;;;;28.18;56.42;94707.91;5116328;28;1056;-55
2023/07/01 10:07:39;;;;;;;;;;;;;;;28.21;54.00;94707.31;5115240;28;1026;-55
2023/07/01 10:10:10;;;;;;;;;;;;;;;28.28;57.36;94707.03;5116353;28;965;-55
2023/07/01 10:12:36;;;;;;;;;;;;;;;28.32;57.07;94699.84;5116439;28;988;-55
2023/07/01 10:15:03;;;;;;;;;;;;;;;28.35;55.39;94691.03;5116432;28;1905;-55
2023/07/01 10:17:44;;;;;;;;;;;;;;;28.39;55.30;94703.09;5116096;28;1025;-55
2023/07/01 10:20:25;;;;;;;;;;;;;;;28.54;54.88;94688.47;5116449;28;1041;-55
2023/07/01 10:22:53;;;;;;;;;;;;;;;28.57;56.26;94685.97;5116396;28;964;-55
2023/07/01 10:25:28;;;;;;;;;;;;;;;28.75;56.48;94694.66;5115894;27;1306;-54
2023/07/01 10:27:58;;;;;;;;;;;;;;;29.09;44.96;94704.81;5115597;27;1044;-55
2023/07/01 10:30:25;;;;;;;;;;;;;;;28.96;36.49;94714.56;5115961;28;996;-56
2023/07/01 10:32:51;;;;;;;;;;;;;;;28.82;38.31;94706.16;5116333;28;1100;-55
2023/07/01 10:35:17;;;;;;;;;;;;;;;28.88;42.64;94688.47;5115580;28;1976;-55
2023/07/01 10:38:02;;;;;;;;;;;;;;;29.04;40.82;94688.34;5115744;28;1041;-55
2023/07/01 10:40:28;;;;;;;;;;;;;;;29.11;39.43;94691.59;5115682;28;1060;-55
2023/07/01 10:43:13;;;;;;;;;;;;;;;29.13;38.26;94689.41;5115777;28;1449;-55
2023/07/01 10:45:39;;;;;;;;;;;;;;;29.06;42.89;94681.44;5116026;27;1090;-54
2023/07/01 10:48:12;;;;;;;;;;;;;;;29.17;39.17;94687.72;5115559;28;1032;-55
2023/07/01 10:51:04;;;;;;;;;;;;;;;29.16;37.07;94688.84;5115519;28;1057;-55
2023/07/01 10:53:30;;;;;;;;;;;;;;;29.11;39.04;94672.34;5112282;28;1608;-54
2023/07/01 10:56:17;;;;;;;;;;;;;;;29.28;40.40;94674.69;5115278;28;1996;-54
2023/07/01 10:58:43;;;;;;;;;;;;;;;29.20;38.41;94665.13;5115448;28;1055;-55
2023/07/01 11:01:29;;;;;;;;;;;;;;;29.42;43.13;94650.03;5114437;28;976;-54
2023/07/01 11:03:55;;;;;;;;;;;;;;;29.50;39.95;94654.88;5115152;28;1224;-54
2023/07/01 11:06:22;;;;;;;;;;;;;;;29.55;39.59;94657.56;5115479;28;1031;-55
2023/07/01 11:08:49;;;;;;;;;;;;;;;29.75;41.16;94657.38;5115089;28;1055;-54
2023/07/01 11:11:19;;;;;;;;;;;;;;;29.89;40.56;94653.91;5115159;28;1013;-54
2023/07/01 11:13:54;;;;;;;;;;;;;;;29.85;39.98;94655.63;5114364;28;1048;-54
2023/07/01 11:16:21;;;;;;;;;;;;;;;30.02;38.19;94663.38;5114773;28;1906;-54
2023/07/01 11:18:48;;;;;;;;;;;;;;;29.90;40.91;94656.38;5115305;28;993;-53
2023/07/01 11:21:18;;;;;;;;;;;;;;;29.75;40.27;94651.88;5114759;28;976;-55
2023/07/01 11:23:54;;;;;;;;;;;;;;;29.74;39.11;94654.91;5114804;28;1084;-53
2023/07/01 11:26:22;;;;;;;;;;;;;;;29.83;37.81;94652.34;5114945;28;972;-53
2023/07/01 11:28:48;;;;;;;;;;;;;;;29.97;40.69;94647.72;5115087;28;992;-53
2023/07/01 11:31:16;;;;;;;;;;;;;;;29.86;38.08;94651.72;5114664;28;1899;-53
2023/07/01 11:33:49;;;;;;;;;;;;;;;29.81;38.63;94651.81;5114773;28;940;-53
2023/07/01 11:36:16;;;;;;;;;;;;;;;29.85;39.60;94647.34;5114768;28;1906;-53
2023/07/01 11:38:47;;;;;;;;;;;;;;;29.95;38.82;94647.19;5114860;28;1055;-53
2023/07/01 11:41:23;;;;;;;;;;;;;;;29.86;39.07;94635.19;5114666;28;1030;-54
2023/07/01 11:43:49;;;;;;;;;;;;;;;29.88;41.46;94628.28;5114475;28;1441;-53
2023/07/01 11:46:29;;;;;;;;;;;;;;;29.92;40.19;94631.28;5114572;28;1029;-53
2023/07/01 11:48:55;;;;;;;;;;;;;;;29.60;39.85;94627.22;5113751;28;2469;-54
2023/07/01 11:51:35;;;;;;;;;;;;;;;29.61;41.04;94623.34;5113272;28;2890;-55
2023/07/01 11:54:01;;;;;;;;;;;;;;;29.84;39.50;94627.25;5114264;28;2303;-54
2023/07/01 11:56:27;;;;;;;;;;;;;;;29.86;38.89;94632.44;5114136;28;1132;-54
2023/07/01 11:58:53;;;;;;;;;;;;;;;29.95;39.28;94627.91;5114449;28;972;-54
2023/07/01 12:01:26;;;;;;;;;;;;;;;29.97;41.82;94614.66;5113998;28;1060;-53
2023/07/01 12:03:56;;;;;;;;;;;;;;;29.98;41.00;94611.59;5114211;28;1049;-53
2023/07/01 12:06:25;;;;;;;;;;;;;;;29.92;39.46;94607.28;5114008;28;1013;-54
2023/07/01 12:08:52;;;;;;;;;;;;;;;29.78;41.98;94596.19;5114141;28;1008;-53
2023/07/01 12:11:19;;;;;;;;;;;;;;;29.77;41.42;94600.03;5114179;28;1039;-53
2023/07/01 12:13:45;;;;;;;;;;;;;;;29.75;38.84;94609.72;5113916;28;1057;-53
2023/07/01 12:16:12;;;;;;;;;;;;;;;29.70;40.53;94591.28;5114004;28;1988;-53
2023/07/01 12:18:38;;;;;;;;;;;;;;;29.82;38.80;94595.56;5114064;28;1046;-53
2023/07/01 12:21:04;;;;;;;;;;;;;;;29.91;39.86;94596.56;5113476;28;1088;-53
2023/07/01 12:23:38;;;;;;;;;;;;;;;30.00;37.95;94589.28;5114136;28;1017;-53
2023/07/01 12:26:04;;;;;;;;;;;;;;;30.00;38.47;94589.28;5113524;28;1037;-55
2023/07/01 12:28:30;;;;;;;;;;;;;;;29.82;39.63;94582.63;5114004;28;1281;-53
2023/07/01 12:30:56;;;;;;;;;;;;;;;29.75;39.96;94577.47;5114037;28;992;-54
2023/07/01 12:33:22;;;;;;;;;;;;;;;29.71;40.59;94583.84;5113659;28;1207;-54
2023/07/01 12:35:48;;;;;;;;;;;;;;;29.77;40.21;94583.50;5113345;28;2035;-53
2023/07/01 12:41:36;;;;;;;;;;;;;;;29.35;39.88;94579.63;5113863;28;752;-54
2023/07/01 12:44:04;;;;;;;;;;;;;;;29.39;40.52;94572.41;5111337;28;1629;-54
2023/07/01 12:46:32;;;;;;;;;;;;;;;29.51;41.28;94574.72;5113932;28;1143;-54
2023/07/01 12:49:00;;;;;;;;;;;;;;;29.65;41.18;94568.50;5113665;28;1024;-54
2023/07/01 12:51:27;;;;;;;;;;;;;;;29.71;39.50;94565.38;5113844;28;1007;-54
2023/07/01 12:53:57;;;;;;;;;;;;;;;29.79;39.24;94552.91;5113628;28;1846;-54
2023/07/01 12:56:25;;;;;;;;;;;;;;;29.56;40.98;94541.63;5113342;28;1909;-54
2023/07/01 12:58:51;;;;;;;;;;;;;;;29.65;39.66;94544.53;5113846;28;1035;-55
2023/07/01 13:01:17;;;;;;;;;;;;;;;29.80;42.61;94532.50;5110344;28;1504;-53
2023/07/01 13:03:44;;;;;;;;;;;;;;;29.87;43.07;94537.66;5092282;28;1201;-54